Terminal Aerodrome Forecast
Issued by NWS Grand Forks, ND

Home | Current Version | Previous Version | Graphics & Text | Print | Product List | Glossary On
Versions: 1 2 3 4 5 6 7 8 9 10 11 12 13 14 15 16 17 18
000
FTUS43 KFGF 021100
TAFGFK
TAF
KGFK 021120Z 0212/0312 18007KT P6SM FEW250
     FM021800 20016G23KT P6SM BKN250
     FM022200 21010G20KT P6SM VCTS SCT050CB BKN250
     FM030400 19007KT P6SM BKN250=

USA.gov is the U.S. government's official web portal to all federal, state and local government web resources and services.